Wetterdaten: Woche 29.08.11 - 04.09.11 (KW35)
Datum Zeit Temp. Innen Temp. Aussen UV X Diff Temp. Feuchte Inne Feuchte Auss Sonnenschein Luftdruck Regen ab 0,1 Wind Sonnenschein T Regendauer Windben
29.08.2011 00:00 20,3 C 13,6 C 0,0 UV-I 0,0 C 58 % 86 % 0 % 1015,1 hPa 0,0 l/m 2,8 km/h (1 Bft) 0,00 h 0,00 h 6,1 km/h (2 Bft)
29.08.2011 01:00 20,2 C 13,5 C 0,0 UV-I 0,0 C 58 % 86 % 0 % 1015,0 hPa 0,0 l/m 1,9 km/h (1 Bft) 0,00 h 0,00 h 3,5 km/h (1 Bft)
29.08.2011 02:00 20,0 C 13,3 C 0,0 UV-I 0,0 C 57 % 85 % 0 % 1014,6 hPa 0,0 l/m 3,8 km/h (1 Bft) 0,00 h 0,00 h 7,1 km/h (2 Bft)
29.08.2011 03:00 19,7 C 13,0 C 0,0 UV-I 0,0 C 57 % 85 % 0 % 1014,1 hPa 0,0 l/m 4,2 km/h (1 Bft) 0,00 h 0,00 h 8,1 km/h (2 Bft)
29.08.2011 04:00 19,6 C 12,8 C 0,0 UV-I 0,0 C 58 % 86 % 0 % 1013,6 hPa 0,0 l/m 5,0 km/h (1 Bft) 0,00 h 0,00 h 8,5 km/h (2 Bft)
29.08.2011 05:00 19,3 C 12,7 C 0,0 UV-I 0,0 C 58 % 86 % 0 % 1013,5 hPa 0,0 l/m 5,1 km/h (1 Bft) 0,00 h 0,00 h 8,3 km/h (2 Bft)
29.08.2011 06:00 19,2 C 12,7 C 0,0 UV-I 0,0 C 59 % 87 % 0 % 1013,1 hPa 0,0 l/m 3,7 km/h (1 Bft) 0,00 h 0,10 h 6,2 km/h (2 Bft)
29.08.2011 07:00 19,3 C 12,8 C 0,0 UV-I 0,0 C 59 % 88 % 0 % 1013,1 hPa 0,0 l/m 4,9 km/h (1 Bft) 0,00 h 0,00 h 7,4 km/h (2 Bft)
29.08.2011 08:00 19,2 C 13,3 C 0,1 UV-I 0,5 C 60 % 87 % 14 % 1013,4 hPa 0,0 l/m 4,9 km/h (1 Bft) 0,00 h 0,00 h 7,9 km/h (2 Bft)
29.08.2011 09:00 19,4 C 14,3 C 0,6 UV-I 2,4 C 60 % 86 % 64 % 1013,6 hPa 0,0 l/m 5,9 km/h (2 Bft) 0,33 h 0,00 h 10,0 km/h (2 Bft)
29.08.2011 10:00 19,6 C 15,2 C 0,6 UV-I 2,3 C 60 % 82 % 58 % 1013,7 hPa 0,0 l/m 5,9 km/h (2 Bft) 0,43 h 0,13 h 9,6 km/h (2 Bft)
29.08.2011 11:00 19,9 C 14,3 C 0,7 UV-I 0,6 C 61 % 86 % 18 % 1014,0 hPa 1,4 l/m 3,8 km/h (1 Bft) 0,07 h 0,63 h 6,5 km/h (2 Bft)
29.08.2011 12:00 20,3 C 16,4 C 2,2 UV-I 4,3 C 60 % 78 % 100 % 1014,2 hPa 0,0 l/m 8,0 km/h (2 Bft) 1,00 h 0,00 h 14,0 km/h (3 Bft)
29.08.2011 13:00 20,5 C 16,9 C 1,1 UV-I 2,0 C 55 % 65 % 57 % 1014,3 hPa 0,0 l/m 9,4 km/h (2 Bft) 0,03 h 0,00 h 13,6 km/h (3 Bft)
29.08.2011 14:00 20,7 C 16,2 C 0,5 UV-I 0,8 C 53 % 66 % 24 % 1014,8 hPa 0,0 l/m 8,2 km/h (2 Bft) 0,00 h 0,00 h 11,5 km/h (2 Bft)
29.08.2011 15:00 20,8 C 16,1 C 1,4 UV-I 2,1 C 53 % 69 % 58 % 1015,1 hPa 0,0 l/m 7,1 km/h (2 Bft) 0,50 h 0,00 h 9,2 km/h (2 Bft)
29.08.2011 16:00 21,2 C 16,1 C 0,3 UV-I 0,8 C 51 % 67 % 23 % 1015,4 hPa 0,0 l/m 6,2 km/h (2 Bft) 0,00 h 0,00 h 8,6 km/h (2 Bft)
29.08.2011 17:00 21,1 C 16,4 C 0,5 UV-I 1,0 C 52 % 65 % 30 % 1015,1 hPa 0,0 l/m 5,3 km/h (1 Bft) 0,00 h 0,00 h 7,5 km/h (2 Bft)
29.08.2011 18:00 21,1 C 16,5 C 0,4 UV-I 0,5 C 51 % 63 % 14 % 1015,2 hPa 0,0 l/m 6,3 km/h (2 Bft) 0,00 h 0,00 h 9,2 km/h (2 Bft)
29.08.2011 19:00 21,0 C 15,8 C 0,1 UV-I 0,0 C 50 % 63 % 0 % 1015,2 hPa 0,0 l/m 5,1 km/h (1 Bft) 0,00 h 0,00 h 7,0 km/h (2 Bft)
29.08.2011 20:00 20,8 C 14,7 C 0,0 UV-I 0,0 C 50 % 66 % 0 % 1015,3 hPa 0,0 l/m 2,6 km/h (1 Bft) 0,00 h 0,00 h 3,8 km/h (1 Bft)
29.08.2011 21:00 20,5 C 13,7 C 0,0 UV-I 0,0 C 51 % 72 % 0 % 1015,9 hPa 0,0 l/m 0,6 km/h (0 Bft) 0,00 h 0,00 h 2,1 km/h (1 Bft)
29.08.2011 22:00 20,2 C 13,3 C 0,0 UV-I 0,0 C 51 % 74 % 0 % 1015,9 hPa 0,0 l/m 0,6 km/h (0 Bft) 0,00 h 0,00 h 0,9 km/h (0 Bft)
29.08.2011 23:00 20,0 C 13,0 C 0,0 UV-I 0,0 C 52 % 77 % 0 % 1016,0 hPa 0,0 l/m 0,2 km/h (0 Bft) 0,00 h 0,00 h 0,6 km/h (0 Bft)
30.08.2011 00:00 19,9 C 12,6 C 0,0 UV-I 0,0 C 52 % 78 % 0 % 1015,7 hPa 0,0 l/m 0,3 km/h (0 Bft) 0,00 h 0,00 h 1,8 km/h (1 Bft)
30.08.2011 01:00 19,7 C 12,4 C 0,0 UV-I 0,0 C 53 % 79 % 0 % 1015,4 hPa 0,0 l/m 0,5 km/h (0 Bft) 0,00 h 0,00 h 2,2 km/h (1 Bft)
30.08.2011 02:00 19,6 C 12,4 C 0,0 UV-I 0,0 C 53 % 80 % 0 % 1015,2 hPa 0,0 l/m 0,6 km/h (0 Bft) 0,00 h 0,00 h 1,6 km/h (1 Bft)
30.08.2011 03:00 19,6 C 12,4 C 0,0 UV-I 0,0 C 54 % 81 % 0 % 1014,9 hPa 0,0 l/m 0,1 km/h (0 Bft) 0,00 h 0,00 h 0,5 km/h (0 Bft)
30.08.2011 04:00 19,6 C 12,3 C 0,0 UV-I 0,0 C 54 % 82 % 0 % 1014,8 hPa 0,0 l/m 0,3 km/h (0 Bft) 0,00 h 0,00 h 1,6 km/h (1 Bft)
30.08.2011 05:00 19,4 C 12,1 C 0,0 UV-I 0,0 C 54 % 82 % 0 % 1014,8 hPa 0,0 l/m 0,7 km/h (0 Bft) 0,00 h 0,00 h 2,5 km/h (1 Bft)
30.08.2011 06:00 19,2 C 12,0 C 0,0 UV-I 0,0 C 54 % 82 % 0 % 1014,5 hPa 0,0 l/m 0,5 km/h (0 Bft) 0,00 h 0,00 h 0,7 km/h (0 Bft)
30.08.2011 07:00 19,2 C 11,9 C 0,0 UV-I 0,0 C 55 % 83 % 0 % 1014,6 hPa 0,0 l/m 0,2 km/h (0 Bft) 0,00 h 0,00 h 0,7 km/h (0 Bft)
30.08.2011 08:00 19,2 C 12,2 C 0,0 UV-I 0,3 C 55 % 83 % 8 % 1014,7 hPa 0,0 l/m 1,1 km/h (0 Bft) 0,00 h 0,00 h 3,3 km/h (1 Bft)
30.08.2011 09:00 19,3 C 13,0 C 0,0 UV-I 1,0 C 55 % 82 % 27 % 1015,0 hPa 0,0 l/m 1,2 km/h (1 Bft) 0,00 h 0,00 h 3,2 km/h (1 Bft)
30.08.2011 10:00 19,5 C 13,9 C 0,4 UV-I 1,5 C 55 % 80 % 44 % 1015,4 hPa 0,0 l/m 1,5 km/h (1 Bft) 0,00 h 0,00 h 4,4 km/h (1 Bft)
30.08.2011 11:00 19,8 C 14,5 C 0,6 UV-I 2,0 C 55 % 79 % 57 % 1015,7 hPa 0,0 l/m 2,5 km/h (1 Bft) 0,00 h 0,00 h 6,4 km/h (2 Bft)
30.08.2011 12:00 20,0 C 14,9 C 0,6 UV-I 1,8 C 55 % 77 % 52 % 1015,8 hPa 0,0 l/m 2,6 km/h (1 Bft) 0,00 h 0,00 h 5,4 km/h (1 Bft)
30.08.2011 13:00 20,1 C 15,7 C 0,9 UV-I 2,3 C 54 % 74 % 66 % 1015,4 hPa 0,0 l/m 2,7 km/h (1 Bft) 0,00 h 0,00 h 4,6 km/h (1 Bft)
30.08.2011 14:00 20,3 C 16,5 C 1,2 UV-I 3,1 C 54 % 71 % 87 % 1015,4 hPa 0,0 l/m 3,0 km/h (1 Bft) 0,67 h 0,00 h 5,9 km/h (2 Bft)
30.08.2011 15:00 20,5 C 16,2 C 0,4 UV-I 1,2 C 54 % 71 % 34 % 1015,2 hPa 0,0 l/m 2,8 km/h (1 Bft) 0,00 h 0,00 h 6,1 km/h (2 Bft)
30.08.2011 16:00 20,8 C 17,0 C 1,3 UV-I 2,7 C 54 % 69 % 68 % 1014,8 hPa 0,0 l/m 3,4 km/h (1 Bft) 0,33 h 0,00 h 5,9 km/h (2 Bft)
30.08.2011 17:00 21,4 C 17,1 C 0,6 UV-I 2,0 C 52 % 66 % 53 % 1015,1 hPa 0,0 l/m 4,5 km/h (1 Bft) 0,23 h 0,00 h 7,9 km/h (2 Bft)
30.08.2011 18:00 21,2 C 16,2 C 0,0 UV-I 0,3 C 52 % 69 % 10 % 1014,9 hPa 0,0 l/m 3,1 km/h (1 Bft) 0,00 h 0,00 h 5,0 km/h (1 Bft)
30.08.2011 19:00 20,9 C 15,6 C 0,0 UV-I 0,0 C 52 % 71 % 0 % 1014,6 hPa 0,0 l/m 0,7 km/h (0 Bft) 0,00 h 0,00 h 1,2 km/h (1 Bft)
30.08.2011 20:00 20,7 C 15,0 C 0,0 UV-I 0,0 C 54 % 75 % 0 % 1014,7 hPa 0,0 l/m 0,0 km/h (0 Bft) 0,00 h 0,00 h 0,0 km/h (0 Bft)
30.08.2011 21:00 20,5 C 14,3 C 0,0 UV-I 0,0 C 55 % 79 % 0 % 1014,9 hPa 0,0 l/m 0,0 km/h (0 Bft) 0,00 h 0,00 h 0,3 km/h (0 Bft)
30.08.2011 22:00 20,4 C 13,7 C 0,0 UV-I 0,0 C 56 % 81 % 0 % 1014,8 hPa 0,0 l/m 0,0 km/h (0 Bft) 0,00 h 0,00 h 0,0 km/h (0 Bft)
30.08.2011 23:00 20,2 C 12,8 C 0,0 UV-I 0,0 C 57 % 84 % 0 % 1014,8 hPa 0,0 l/m 0,0 km/h (0 Bft) 0,00 h 0,00 h 0,0 km/h (0 Bft)
31.08.2011 00:00 20,1 C 11,9 C 0,0 UV-I 0,0 C 57 % 86 % 0 % 1014,6 hPa 0,0 l/m 0,0 km/h (0 Bft) 0,00 h 0,00 h 0,0 km/h (0 Bft)
31.08.2011 01:00 19,9 C 10,8 C 0,0 UV-I 0,0 C 57 % 88 % 0 % 1014,5 hPa 0,0 l/m 0,0 km/h (0 Bft) 0,00 h 0,00 h 0,0 km/h (0 Bft)
31.08.2011 02:00 19,7 C 10,1 C 0,0 UV-I 0,0 C 56 % 89 % 0 % 1014,2 hPa 0,0 l/m 0,0 km/h (0 Bft) 0,00 h 0,00 h 0,0 km/h (0 Bft)
31.08.2011 03:00 19,5 C 10,0 C 0,0 UV-I 0,0 C 56 % 91 % 0 % 1014,0 hPa 0,0 l/m 0,0 km/h (0 Bft) 0,00 h 0,00 h 0,0 km/h (0 Bft)
31.08.2011 04:00 19,3 C 9,6 C 0,0 UV-I 0,0 C 56 % 90 % 0 % 1013,8 hPa 0,0 l/m 0,0 km/h (0 Bft) 0,00 h 0,00 h 0,0 km/h (0 Bft)
31.08.2011 05:00 19,2 C 9,4 C 0,0 UV-I 0,0 C 56 % 91 % 0 % 1013,7 hPa 0,0 l/m 0,0 km/h (0 Bft) 0,00 h 0,00 h 0,0 km/h (0 Bft)
31.08.2011 06:00 19,1 C 8,9 C 0,0 UV-I 0,0 C 57 % 92 % 0 % 1013,5 hPa 0,0 l/m 0,0 km/h (0 Bft) 0,00 h 0,00 h 0,0 km/h (0 Bft)
31.08.2011 07:00 18,9 C 8,9 C 0,0 UV-I 0,0 C 57 % 92 % 0 % 1013,6 hPa 0,0 l/m 0,0 km/h (0 Bft) 0,00 h 0,00 h 0,0 km/h (0 Bft)
31.08.2011 08:00 19,0 C 10,1 C 0,2 UV-I 1,1 C 57 % 93 % 25 % 1014,1 hPa 0,0 l/m 0,2 km/h (0 Bft) 0,20 h 0,13 h 1,0 km/h (0 Bft)
31.08.2011 09:00 19,1 C 12,9 C 0,9 UV-I 7,3 C 58 % 92 % 100 % 1014,1 hPa 0,0 l/m 1,1 km/h (1 Bft) 1,00 h 0,00 h 2,9 km/h (1 Bft)
31.08.2011 10:00 19,3 C 16,0 C 2,4 UV-I 8,3 C 58 % 85 % 100 % 1014,5 hPa 0,0 l/m 2,1 km/h (1 Bft) 1,00 h 0,00 h 4,4 km/h (1 Bft)
31.08.2011 11:00 19,7 C 17,4 C 2,6 UV-I 6,3 C 57 % 72 % 100 % 1014,8 hPa 0,0 l/m 2,7 km/h (1 Bft) 1,00 h 0,00 h 5,4 km/h (1 Bft)
31.08.2011 12:00 20,2 C 18,3 C 2,6 UV-I 6,0 C 56 % 66 % 100 % 1014,8 hPa 0,0 l/m 3,0 km/h (1 Bft) 1,00 h 0,00 h 5,7 km/h (1 Bft)
31.08.2011 13:00 21,1 C 19,5 C 3,5 UV-I 6,5 C 55 % 60 % 100 % 1014,9 hPa 0,0 l/m 3,3 km/h (1 Bft) 1,00 h 0,00 h 6,4 km/h (2 Bft)
31.08.2011 14:00 22,1 C 19,6 C 2,1 UV-I 4,5 C 53 % 58 % 89 % 1015,1 hPa 0,0 l/m 5,3 km/h (1 Bft) 0,77 h 0,00 h 8,7 km/h (2 Bft)
31.08.2011 15:00 22,9 C 20,0 C 2,2 UV-I 4,3 C 51 % 58 % 93 % 1014,9 hPa 0,0 l/m 4,0 km/h (1 Bft) 0,80 h 0,00 h 6,7 km/h (2 Bft)
31.08.2011 16:00 23,7 C 21,0 C 3,2 UV-I 5,3 C 49 % 55 % 100 % 1014,9 hPa 0,0 l/m 3,7 km/h (1 Bft) 1,00 h 0,00 h 6,3 km/h (2 Bft)
31.08.2011 17:00 23,9 C 20,3 C 1,1 UV-I 2,3 C 48 % 57 % 58 % 1014,7 hPa 0,0 l/m 3,6 km/h (1 Bft) 0,37 h 0,00 h 5,9 km/h (2 Bft)
31.08.2011 18:00 23,4 C 19,0 C 0,3 UV-I 0,3 C 49 % 61 % 10 % 1014,3 hPa 0,0 l/m 6,7 km/h (2 Bft) 0,00 h 0,00 h 10,1 km/h (2 Bft)
31.08.2011 19:00 23,0 C 17,5 C 0,0 UV-I 0,0 C 51 % 70 % 0 % 1014,3 hPa 0,0 l/m 8,6 km/h (2 Bft) 0,00 h 0,00 h 10,0 km/h (2 Bft)
31.08.2011 20:00 22,5 C 16,0 C 0,0 UV-I 0,0 C 52 % 74 % 0 % 1014,4 hPa 0,0 l/m 0,9 km/h (0 Bft) 0,00 h 0,07 h 1,7 km/h (1 Bft)
31.08.2011 21:00 22,0 C 14,4 C 0,0 UV-I 0,0 C 54 % 79 % 0 % 1014,3 hPa 0,0 l/m 0,0 km/h (0 Bft) 0,00 h 0,10 h 0,0 km/h (0 Bft)
31.08.2011 22:00 21,7 C 13,3 C 0,0 UV-I 0,0 C 55 % 84 % 0 % 1014,7 hPa 0,0 l/m 0,0 km/h (0 Bft) 0,00 h 0,00 h 0,0 km/h (0 Bft)
31.08.2011 23:00 21,4 C 12,3 C 0,0 UV-I 0,0 C 56 % 86 % 0 % 1014,8 hPa 0,0 l/m 0,0 km/h (0 Bft) 0,00 h 0,17 h 0,0 km/h (0 Bft)
01.09.2011 00:00 21,2 C 11,5 C 0,0 UV-I 0,0 C 56 % 88 % 0 % 1014,9 hPa 0,0 l/m 0,0 km/h (0 Bft) 0,00 h 0,07 h 0,0 km/h (0 Bft)
01.09.2011 01:00 21,0 C 11,0 C 0,0 UV-I 0,0 C 57 % 90 % 0 % 1015,0 hPa 0,0 l/m 0,0 km/h (0 Bft) 0,00 h 0,07 h 0,0 km/h (0 Bft)
01.09.2011 02:00 20,9 C 10,8 C 0,0 UV-I 0,0 C 57 % 91 % 0 % 1014,8 hPa 0,0 l/m 0,0 km/h (0 Bft) 0,00 h 0,00 h 0,0 km/h (0 Bft)
01.09.2011 03:00 20,8 C 10,6 C 0,0 UV-I 0,0 C 57 % 91 % 0 % 1014,5 hPa 0,0 l/m 0,0 km/h (0 Bft) 0,00 h 0,00 h 0,0 km/h (0 Bft)
01.09.2011 04:00 20,6 C 10,5 C 0,0 UV-I 0,0 C 57 % 92 % 0 % 1014,9 hPa 0,0 l/m 0,0 km/h (0 Bft) 0,00 h 0,07 h 0,0 km/h (0 Bft)
01.09.2011 05:00 20,6 C 10,7 C 0,0 UV-I 0,0 C 57 % 92 % 0 % 1015,0 hPa 0,0 l/m 0,0 km/h (0 Bft) 0,00 h 0,10 h 0,0 km/h (0 Bft)
01.09.2011 06:00 20,5 C 10,9 C 0,0 UV-I 0,0 C 58 % 92 % 0 % 1014,9 hPa 0,0 l/m 1,0 km/h (0 Bft) 0,00 h 0,03 h 2,2 km/h (1 Bft)
01.09.2011 07:00 20,4 C 10,6 C 0,0 UV-I 0,0 C 58 % 92 % 0 % 1015,0 hPa 0,0 l/m 0,2 km/h (0 Bft) 0,00 h 0,07 h 0,0 km/h (0 Bft)
01.09.2011 08:00 20,4 C 11,0 C 0,1 UV-I 0,5 C 58 % 93 % 14 % 1015,5 hPa 0,0 l/m 0,1 km/h (0 Bft) 0,03 h 0,00 h 0,7 km/h (0 Bft)
01.09.2011 09:00 20,5 C 13,4 C 0,8 UV-I 4,2 C 58 % 88 % 94 % 1015,8 hPa 0,0 l/m 6,7 km/h (2 Bft) 0,83 h 0,00 h 9,3 km/h (2 Bft)
01.09.2011 10:00 20,7 C 15,8 C 1,8 UV-I 6,6 C 57 % 75 % 100 % 1015,7 hPa 0,0 l/m 5,2 km/h (1 Bft) 1,00 h 0,00 h 7,0 km/h (2 Bft)
01.09.2011 11:00 20,9 C 17,1 C 3,2 UV-I 6,4 C 57 % 68 % 100 % 1015,8 hPa 0,0 l/m 7,6 km/h (2 Bft) 1,00 h 0,00 h 11,4 km/h (2 Bft)
01.09.2011 12:00 21,2 C 18,3 C 2,4 UV-I 6,3 C 57 % 63 % 100 % 1015,6 hPa 0,0 l/m 5,3 km/h (1 Bft) 1,00 h 0,00 h 8,4 km/h (2 Bft)
01.09.2011 13:00 21,9 C 18,7 C 2,7 UV-I 4,5 C 55 % 61 % 100 % 1015,7 hPa 0,0 l/m 4,9 km/h (1 Bft) 1,00 h 0,00 h 6,7 km/h (2 Bft)
01.09.2011 14:00 22,9 C 20,0 C 3,4 UV-I 6,0 C 53 % 59 % 100 % 1015,5 hPa 0,0 l/m 5,0 km/h (1 Bft) 1,00 h 0,00 h 7,3 km/h (2 Bft)
01.09.2011 15:00 24,1 C 20,6 C 3,8 UV-I 5,9 C 51 % 56 % 100 % 1015,7 hPa 0,0 l/m 6,7 km/h (2 Bft) 1,00 h 0,00 h 8,8 km/h (2 Bft)
01.09.2011 16:00 25,0 C 21,0 C 3,7 UV-I 5,2 C 48 % 54 % 100 % 1015,4 hPa 0,0 l/m 7,3 km/h (2 Bft) 1,00 h 0,00 h 10,1 km/h (2 Bft)
01.09.2011 17:00 25,0 C 21,1 C 2,7 UV-I 3,9 C 47 % 52 % 94 % 1014,8 hPa 0,0 l/m 6,8 km/h (2 Bft) 0,83 h 0,00 h 9,7 km/h (2 Bft)
01.09.2011 18:00 24,3 C 20,1 C 0,6 UV-I 0,4 C 48 % 54 % 13 % 1014,3 hPa 0,0 l/m 8,6 km/h (2 Bft) 0,00 h 0,00 h 9,4 km/h (2 Bft)
01.09.2011 19:00 23,8 C 18,9 C 0,1 UV-I 0,0 C 50 % 58 % 0 % 1013,9 hPa 0,0 l/m 7,7 km/h (2 Bft) 0,00 h 0,00 h 8,6 km/h (2 Bft)
01.09.2011 20:00 23,2 C 17,1 C 0,0 UV-I 0,0 C 51 % 65 % 0 % 1013,6 hPa 0,0 l/m 5,4 km/h (1 Bft) 0,00 h 0,00 h 6,0 km/h (2 Bft)
01.09.2011 21:00 22,7 C 15,6 C 0,0 UV-I 0,0 C 53 % 71 % 0 % 1013,9 hPa 0,0 l/m 1,6 km/h (1 Bft) 0,00 h 0,00 h 2,5 km/h (1 Bft)
01.09.2011 22:00 22,3 C 14,2 C 0,0 UV-I 0,0 C 54 % 75 % 0 % 1013,7 hPa 0,0 l/m 0,1 km/h (0 Bft) 0,00 h 0,03 h 0,0 km/h (0 Bft)
01.09.2011 23:00 22,1 C 13,0 C 0,0 UV-I 0,0 C 54 % 79 % 0 % 1013,4 hPa 0,0 l/m 0,0 km/h (0 Bft) 0,00 h 0,03 h 0,0 km/h (0 Bft)
02.09.2011 00:00 21,9 C 12,2 C 0,0 UV-I 0,0 C 55 % 83 % 0 % 1013,6 hPa 0,0 l/m 0,0 km/h (0 Bft) 0,00 h 0,03 h 0,0 km/h (0 Bft)
02.09.2011 01:00 21,7 C 12,2 C 0,0 UV-I 0,0 C 55 % 84 % 0 % 1013,7 hPa 0,0 l/m 0,0 km/h (0 Bft) 0,00 h 0,10 h 0,0 km/h (0 Bft)
02.09.2011 02:00 21,6 C 11,6 C 0,0 UV-I 0,0 C 55 % 85 % 0 % 1013,0 hPa 0,0 l/m 0,0 km/h (0 Bft) 0,00 h 0,03 h 0,0 km/h (0 Bft)
02.09.2011 03:00 21,4 C 11,4 C 0,0 UV-I 0,0 C 56 % 87 % 0 % 1012,8 hPa 0,0 l/m 0,0 km/h (0 Bft) 0,00 h 0,00 h 0,0 km/h (0 Bft)
02.09.2011 04:00 21,3 C 10,8 C 0,0 UV-I 0,0 C 56 % 87 % 0 % 1012,6 hPa 0,0 l/m 0,0 km/h (0 Bft) 0,00 h 0,00 h 0,0 km/h (0 Bft)
02.09.2011 05:00 21,2 C 10,4 C 0,0 UV-I 0,0 C 56 % 89 % 0 % 1012,2 hPa 0,0 l/m 0,0 km/h (0 Bft) 0,00 h 0,00 h 0,0 km/h (0 Bft)
02.09.2011 06:00 21,0 C 10,6 C 0,0 UV-I 0,0 C 56 % 90 % 0 % 1012,1 hPa 0,0 l/m 0,0 km/h (0 Bft) 0,00 h 0,03 h 0,0 km/h (0 Bft)
02.09.2011 07:00 21,0 C 11,1 C 0,0 UV-I 0,0 C 57 % 91 % 0 % 1012,2 hPa 0,0 l/m 0,0 km/h (0 Bft) 0,00 h 0,07 h 0,0 km/h (0 Bft)
02.09.2011 08:00 21,0 C 12,6 C 0,1 UV-I 1,4 C 57 % 91 % 33 % 1012,2 hPa 0,0 l/m 0,6 km/h (0 Bft) 0,23 h 0,03 h 2,2 km/h (1 Bft)
02.09.2011 09:00 21,2 C 15,6 C 0,7 UV-I 5,2 C 57 % 87 % 100 % 1012,0 hPa 0,0 l/m 4,0 km/h (1 Bft) 1,00 h 0,00 h 7,6 km/h (2 Bft)
02.09.2011 10:00 21,4 C 18,3 C 2,0 UV-I 6,7 C 57 % 81 % 100 % 1011,9 hPa 0,0 l/m 2,1 km/h (1 Bft) 1,00 h 0,00 h 3,9 km/h (1 Bft)
02.09.2011 11:00 21,6 C 21,5 C 3,5 UV-I 7,0 C 58 % 72 % 100 % 1012,1 hPa 0,0 l/m 3,1 km/h (1 Bft) 1,00 h 0,00 h 5,0 km/h (1 Bft)
02.09.2011 12:00 22,0 C 24,1 C 2,8 UV-I 6,0 C 58 % 65 % 100 % 1012,1 hPa 0,0 l/m 4,6 km/h (1 Bft) 1,00 h 0,00 h 7,9 km/h (2 Bft)
02.09.2011 13:00 22,9 C 26,2 C 4,1 UV-I 5,9 C 57 % 60 % 100 % 1011,9 hPa 0,0 l/m 3,5 km/h (1 Bft) 1,00 h 0,00 h 5,7 km/h (1 Bft)
02.09.2011 14:00 24,1 C 27,8 C 3,9 UV-I 5,5 C 55 % 54 % 100 % 1012,2 hPa 0,0 l/m 3,5 km/h (1 Bft) 1,00 h 0,00 h 6,6 km/h (2 Bft)
02.09.2011 15:00 25,2 C 28,8 C 3,9 UV-I 5,0 C 53 % 48 % 100 % 1012,4 hPa 0,0 l/m 5,0 km/h (1 Bft) 1,00 h 0,00 h 7,3 km/h (2 Bft)
02.09.2011 16:00 25,8 C 28,7 C 3,3 UV-I 4,2 C 52 % 49 % 100 % 1012,4 hPa 0,0 l/m 4,4 km/h (1 Bft) 1,00 h 0,00 h 7,1 km/h (2 Bft)
02.09.2011 17:00 25,9 C 28,1 C 1,6 UV-I 2,5 C 51 % 51 % 66 % 1012,5 hPa 0,0 l/m 2,7 km/h (1 Bft) 0,40 h 0,00 h 3,7 km/h (1 Bft)
02.09.2011 18:00 25,4 C 27,6 C 0,6 UV-I 0,8 C 53 % 54 % 23 % 1011,9 hPa 0,0 l/m 1,2 km/h (1 Bft) 0,00 h 0,00 h 3,2 km/h (1 Bft)
02.09.2011 19:00 25,0 C 26,4 C 0,1 UV-I 0,0 C 54 % 59 % 0 % 1011,6 hPa 0,0 l/m 0,2 km/h (0 Bft) 0,00 h 0,00 h 0,0 km/h (0 Bft)
02.09.2011 20:00 24,7 C 23,7 C 0,0 UV-I 0,0 C 55 % 67 % 0 % 1011,8 hPa 0,0 l/m 0,0 km/h (0 Bft) 0,00 h 0,00 h 0,0 km/h (0 Bft)
02.09.2011 21:00 24,4 C 21,3 C 0,0 UV-I 0,0 C 57 % 76 % 0 % 1012,1 hPa 0,0 l/m 0,0 km/h (0 Bft) 0,00 h 0,00 h 0,0 km/h (0 Bft)
02.09.2011 22:00 24,1 C 19,8 C 0,0 UV-I 0,0 C 57 % 82 % 0 % 1012,2 hPa 0,0 l/m 0,0 km/h (0 Bft) 0,00 h 0,03 h 0,0 km/h (0 Bft)
02.09.2011 23:00 23,9 C 18,9 C 0,0 UV-I 0,0 C 59 % 86 % 0 % 1012,3 hPa 0,0 l/m 0,0 km/h (0 Bft) 0,00 h 0,00 h 0,0 km/h (0 Bft)
03.09.2011 00:00 23,7 C 18,5 C 0,0 UV-I 0,0 C 60 % 87 % 0 % 1012,1 hPa 0,0 l/m 0,0 km/h (0 Bft) 0,00 h 0,03 h 0,0 km/h (0 Bft)
03.09.2011 01:00 23,5 C 18,4 C 0,0 UV-I 0,0 C 61 % 88 % 0 % 1012,3 hPa 0,0 l/m 0,1 km/h (0 Bft) 0,00 h 0,07 h 0,0 km/h (0 Bft)
03.09.2011 02:00 23,5 C 18,2 C 0,0 UV-I 0,0 C 61 % 88 % 0 % 1012,2 hPa 0,0 l/m 0,1 km/h (0 Bft) 0,00 h 0,03 h 0,4 km/h (0 Bft)
03.09.2011 03:00 23,3 C 17,6 C 0,0 UV-I 0,0 C 61 % 88 % 0 % 1012,0 hPa 0,0 l/m 0,0 km/h (0 Bft) 0,00 h 0,03 h 0,0 km/h (0 Bft)
03.09.2011 04:00 23,2 C 16,8 C 0,0 UV-I 0,0 C 61 % 89 % 0 % 1012,1 hPa 0,0 l/m 0,3 km/h (0 Bft) 0,00 h 0,03 h 1,0 km/h (0 Bft)
03.09.2011 05:00 23,1 C 16,4 C 0,0 UV-I 0,0 C 62 % 90 % 0 % 1012,0 hPa 0,0 l/m 0,0 km/h (0 Bft) 0,00 h 0,00 h 0,0 km/h (0 Bft)
03.09.2011 06:00 22,9 C 15,8 C 0,0 UV-I 0,0 C 62 % 91 % 0 % 1011,9 hPa 0,0 l/m 0,2 km/h (0 Bft) 0,00 h 0,07 h 0,0 km/h (0 Bft)
03.09.2011 07:00 22,9 C 16,0 C 0,0 UV-I 0,0 C 62 % 92 % 0 % 1011,8 hPa 0,0 l/m 0,4 km/h (0 Bft) 0,00 h 0,00 h 1,3 km/h (1 Bft)
03.09.2011 08:00 22,9 C 16,9 C 0,2 UV-I 1,0 C 62 % 92 % 24 % 1011,8 hPa 0,0 l/m 1,9 km/h (1 Bft) 0,20 h 0,00 h 4,2 km/h (1 Bft)
03.09.2011 09:00 23,0 C 19,6 C 0,9 UV-I 6,9 C 62 % 90 % 100 % 1011,9 hPa 0,0 l/m 2,7 km/h (1 Bft) 1,00 h 0,00 h 5,3 km/h (1 Bft)
03.09.2011 10:00 23,1 C 22,7 C 2,3 UV-I 7,2 C 62 % 82 % 100 % 1011,9 hPa 0,0 l/m 3,0 km/h (1 Bft) 1,00 h 0,00 h 4,9 km/h (1 Bft)
03.09.2011 11:00 23,3 C 25,1 C 4,0 UV-I 7,2 C 62 % 72 % 100 % 1012,0 hPa 0,0 l/m 2,6 km/h (1 Bft) 1,00 h 0,00 h 4,7 km/h (1 Bft)
03.09.2011 12:00 23,7 C 27,3 C 3,0 UV-I 6,7 C 62 % 64 % 100 % 1012,1 hPa 0,0 l/m 3,0 km/h (1 Bft) 1,00 h 0,00 h 5,4 km/h (1 Bft)
03.09.2011 13:00 24,4 C 29,0 C 4,5 UV-I 5,4 C 61 % 56 % 100 % 1011,9 hPa 0,0 l/m 5,1 km/h (1 Bft) 1,00 h 0,00 h 9,2 km/h (2 Bft)
03.09.2011 14:00 25,5 C 30,0 C 3,4 UV-I 4,0 C 59 % 50 % 90 % 1012,1 hPa 0,0 l/m 5,0 km/h (1 Bft) 0,83 h 0,00 h 7,9 km/h (2 Bft)
03.09.2011 15:00 26,1 C 30,4 C 3,7 UV-I 4,2 C 57 % 48 % 93 % 1011,8 hPa 0,0 l/m 2,6 km/h (1 Bft) 0,83 h 0,00 h 5,5 km/h (1 Bft)
03.09.2011 16:00 26,9 C 31,3 C 3,4 UV-I 4,0 C 54 % 44 % 95 % 1011,4 hPa 0,0 l/m 4,1 km/h (1 Bft) 0,87 h 0,00 h 5,8 km/h (2 Bft)
03.09.2011 17:00 27,0 C 30,4 C 1,6 UV-I 1,5 C 54 % 47 % 41 % 1010,9 hPa 0,0 l/m 2,7 km/h (1 Bft) 0,13 h 0,00 h 5,2 km/h (1 Bft)
03.09.2011 18:00 26,4 C 29,7 C 0,5 UV-I 0,2 C 55 % 51 % 4 % 1009,8 hPa 0,0 l/m 1,3 km/h (1 Bft) 0,00 h 0,00 h 2,6 km/h (1 Bft)
03.09.2011 19:00 26,0 C 28,2 C 0,0 UV-I 0,0 C 56 % 56 % 0 % 1009,2 hPa 0,0 l/m 0,1 km/h (0 Bft) 0,00 h 0,00 h 0,2 km/h (0 Bft)
03.09.2011 20:00 25,7 C 25,7 C 0,0 UV-I 0,0 C 57 % 65 % 0 % 1009,4 hPa 0,0 l/m 0,0 km/h (0 Bft) 0,00 h 0,00 h 0,0 km/h (0 Bft)
03.09.2011 21:00 25,5 C 23,3 C 0,0 UV-I 0,0 C 58 % 73 % 0 % 1009,2 hPa 0,0 l/m 0,0 km/h (0 Bft) 0,00 h 0,00 h 0,0 km/h (0 Bft)
03.09.2011 22:00 25,2 C 22,7 C 0,0 UV-I 0,0 C 59 % 75 % 0 % 1008,7 hPa 0,0 l/m 1,5 km/h (1 Bft) 0,00 h 0,00 h 3,3 km/h (1 Bft)
03.09.2011 23:00 25,1 C 22,9 C 0,0 UV-I 0,0 C 60 % 74 % 0 % 1008,5 hPa 0,0 l/m 2,7 km/h (1 Bft) 0,00 h 0,00 h 4,6 km/h (1 Bft)
04.09.2011 00:00 24,9 C 22,7 C 0,0 UV-I 0,0 C 61 % 74 % 0 % 1008,2 hPa 0,0 l/m 2,0 km/h (1 Bft) 0,00 h 0,00 h 4,4 km/h (1 Bft)
04.09.2011 01:00 24,8 C 22,5 C 0,0 UV-I 0,0 C 61 % 74 % 0 % 1008,0 hPa 0,0 l/m 3,9 km/h (1 Bft) 0,00 h 0,13 h 7,1 km/h (2 Bft)
04.09.2011 02:00 24,8 C 21,5 C 0,0 UV-I 0,0 C 61 % 80 % 0 % 1008,0 hPa 0,7 l/m 2,7 km/h (1 Bft) 0,00 h 0,13 h 4,7 km/h (1 Bft)
04.09.2011 03:00 24,6 C 20,9 C 0,0 UV-I 0,0 C 62 % 85 % 0 % 1008,2 hPa 0,2 l/m 0,6 km/h (0 Bft) 0,00 h 0,50 h 1,1 km/h (1 Bft)
04.09.2011 04:00 24,6 C 20,3 C 0,0 UV-I 0,0 C 63 % 87 % 0 % 1008,2 hPa 0,9 l/m 0,5 km/h (0 Bft) 0,00 h 0,43 h 0,9 km/h (0 Bft)
04.09.2011 05:00 24,5 C 20,0 C 0,0 UV-I 0,0 C 63 % 89 % 0 % 1008,0 hPa 1,2 l/m 1,6 km/h (1 Bft) 0,00 h 0,50 h 4,0 km/h (1 Bft)
04.09.2011 06:00 24,4 C 19,7 C 0,0 UV-I 0,0 C 64 % 91 % 0 % 1007,8 hPa 0,0 l/m 0,6 km/h (0 Bft) 0,00 h 0,00 h 0,5 km/h (0 Bft)
04.09.2011 07:00 24,2 C 19,8 C 0,0 UV-I 0,0 C 65 % 92 % 0 % 1008,1 hPa 0,0 l/m 0,0 km/h (0 Bft) 0,00 h 0,00 h 0,0 km/h (0 Bft)
04.09.2011 08:00 24,3 C 20,1 C 0,1 UV-I 0,2 C 65 % 92 % 6 % 1008,7 hPa 0,0 l/m 0,2 km/h (0 Bft) 0,00 h 0,00 h 0,8 km/h (0 Bft)
04.09.2011 09:00 24,5 C 21,0 C 0,5 UV-I 1,9 C 65 % 93 % 55 % 1008,7 hPa 0,0 l/m 0,1 km/h (0 Bft) 0,00 h 0,00 h 0,5 km/h (0 Bft)
04.09.2011 10:00 24,6 C 22,1 C 0,7 UV-I 1,9 C 65 % 91 % 53 % 1008,9 hPa 0,0 l/m 0,7 km/h (0 Bft) 0,00 h 0,00 h 1,8 km/h (1 Bft)
04.09.2011 11:00 24,8 C 22,3 C 0,1 UV-I 0,4 C 64 % 88 % 11 % 1008,8 hPa 0,6 l/m 0,7 km/h (0 Bft) 0,00 h 0,47 h 1,5 km/h (1 Bft)
04.09.2011 12:00 24,8 C 21,6 C 1,6 UV-I 1,7 C 65 % 90 % 46 % 1008,9 hPa 4,7 l/m 3,6 km/h (1 Bft) 0,33 h 0,40 h 7,0 km/h (2 Bft)
04.09.2011 13:00 25,1 C 21,6 C 1,8 UV-I 3,3 C 65 % 88 % 84 % 1009,6 hPa 0,0 l/m 4,3 km/h (1 Bft) 0,60 h 0,00 h 6,0 km/h (2 Bft)
04.09.2011 14:00 25,4 C 22,3 C 1,3 UV-I 2,9 C 63 % 83 % 75 % 1009,9 hPa 0,0 l/m 2,9 km/h (1 Bft) 0,57 h 0,00 h 4,8 km/h (1 Bft)
04.09.2011 15:00 25,4 C 22,8 C 1,2 UV-I 2,4 C 63 % 81 % 68 % 1009,8 hPa 0,0 l/m 2,5 km/h (1 Bft) 0,00 h 0,00 h 4,9 km/h (1 Bft)
04.09.2011 16:00 25,4 C 22,5 C 0,2 UV-I 0,8 C 63 % 79 % 22 % 1009,7 hPa 0,0 l/m 2,1 km/h (1 Bft) 0,00 h 0,00 h 4,2 km/h (1 Bft)
04.09.2011 17:00 25,2 C 21,8 C 0,0 UV-I 0,1 C 63 % 80 % 2 % 1009,8 hPa 0,0 l/m 0,7 km/h (0 Bft) 0,00 h 0,17 h 2,2 km/h (1 Bft)
04.09.2011 18:00 25,0 C 21,5 C 0,1 UV-I 0,2 C 63 % 81 % 7 % 1009,5 hPa 0,0 l/m 0,1 km/h (0 Bft) 0,00 h 0,00 h 0,3 km/h (0 Bft)
04.09.2011 19:00 25,0 C 21,5 C 0,0 UV-I 0,1 C 64 % 81 % 2 % 1009,3 hPa 0,0 l/m 0,0 km/h (0 Bft) 0,00 h 0,00 h 0,3 km/h (0 Bft)
04.09.2011 20:00 24,8 C 20,3 C 0,0 UV-I 0,0 C 64 % 82 % 0 % 1009,6 hPa 0,0 l/m 0,0 km/h (0 Bft) 0,00 h 0,00 h 0,0 km/h (0 Bft)
04.09.2011 21:00 24,6 C 19,8 C 0,0 UV-I 0,0 C 65 % 86 % 0 % 1010,0 hPa 0,0 l/m 0,6 km/h (0 Bft) 0,00 h 0,00 h 0,8 km/h (0 Bft)
04.09.2011 22:00 24,4 C 19,5 C 0,0 UV-I 0,0 C 65 % 87 % 0 % 1009,9 hPa 0,0 l/m 0,5 km/h (0 Bft) 0,00 h 0,00 h 1,4 km/h (1 Bft)
04.09.2011 23:00 24,3 C 19,0 C 0,0 UV-I 0,0 C 65 % 87 % 0 % 1010,1 hPa 0,0 l/m 0,3 km/h (0 Bft) 0,00 h 0,00 h 0,9 km/h (0 Bft)
Min-Datum _ 31.08.11 31.08.11 29.08.11 29.08.11 01.09.11 03.09.11 29.08.11 04.09.11 - 29.08.11 - - 29.08.11
_ Min-Zeit 07:26 07:24 00:00 00:00 17:04 16:06 00:00 06:04 - 22:22 - - 00:00
Minimum _ 18,9 C 8,5 C 0,0 UV-I 0,0 C 47 % 42 % 0 % 1007,7 hPa - 0,0 km/h (0 Bft) - - 0,0 km/h (0 Bft)
Max-Datum _ 03.09.11 03.09.11 03.09.11 31.08.11 04.09.11 31.08.11 29.08.11 29.08.11 04.09.11 31.08.11 29.08.11 29.08.11 29.08.11
_ Max-Zeit 16:50 16:44 11:34 10:02 23:32 08:12 09:42 23:24 12:10 18:58 09:40 06:10 13:34
Maximum _ 27,2 C 31,7 C 5,3 UV-I 8,8 C 66 % 93 % 100 % 1016,1 hPa 4,7 l/m 14,5 km/h
W (3 Bft)
0,03 h 0,03 h 38,0 km/h
S-SW (5 Bft)
Durchschnitt _ 22,2 C 17,3 C 0,7 UV-I 1,5 C 57 % 77 % 29 % 1013,1 hPa #9,8 l/m 2,2 km/h (1 Bft) #38:26 h #5:08 h 3,7 km/h (1 Bft)
© 2012 W. Hausmann